Terminal Aerodrome Forecast
Issued by NWS Quad Cities IA IL

Home | Current Version | Previous Version | Text Only | Print | Product List | Glossary On
Versions: 1 2 3 4 5 6 7 8 9 10 11 12 13 14 15 16 17 18 19 20 21 22 23 24 25 26 27 28 29 30
877
FTUS43 KDVN 140520
TAFDBQ
TAF
KDBQ 140520Z 1406/1506 VRB02KT P6SM SKC
     FM141500 17008KT P6SM BKN060
     FM142300 16013KT 6SM BR VCSH BKN025
     FM150300 16012KT 5SM -SN BR OVC015=

USA.gov is the U.S. government's official web portal to all federal, state and local government web resources and services.